createdAt,value
2023-03-06T00:00:59.990Z,9.5
2023-03-06T00:11:12.588Z,11.8
2023-03-06T00:13:14.458Z,10.6
2023-03-06T00:15:16.337Z,6.6
2023-03-06T00:17:18.239Z,9.8
2023-03-06T00:19:20.129Z,8.1
2023-03-06T00:21:22.026Z,15.1
2023-03-06T00:23:27.110Z,9.7
2023-03-06T00:25:29.000Z,8.6
2023-03-06T00:28:33.449Z,9.2
2023-03-06T00:30:35.325Z,12
2023-03-06T00:34:39.090Z,13.4
2023-03-06T00:38:46.049Z,6.8
2023-03-06T00:40:49.487Z,9.4
2023-03-06T00:42:51.321Z,7.5
2023-03-06T00:44:53.174Z,13.6
2023-03-06T00:46:55.073Z,8.2
2023-03-06T00:48:56.969Z,8.2
2023-03-06T00:51:02.157Z,7.6
2023-03-06T00:53:03.898Z,7.7
2023-03-06T00:55:05.749Z,4.8
2023-03-06T00:57:07.634Z,6.3
2023-03-06T00:59:09.498Z,7.9
2023-03-06T01:01:11.404Z,5.6
2023-03-06T01:03:13.221Z,7
2023-03-06T01:05:18.339Z,10.2
2023-03-06T01:07:20.228Z,11.7
2023-03-06T01:09:22.086Z,6.1
2023-03-06T01:11:23.949Z,6.9
2023-03-06T01:15:27.656Z,11.4
2023-03-06T01:19:34.604Z,9.7
2023-03-06T01:21:36.464Z,17.6
2023-03-06T01:23:38.356Z,8.8
2023-03-06T01:26:07.236Z,14.1
2023-03-06T01:28:09.113Z,10.5
2023-03-06T01:30:10.970Z,8.2
2023-03-06T01:34:17.965Z,10
2023-03-06T01:36:19.807Z,8.1
2023-03-06T01:38:21.660Z,7.6
2023-03-06T01:40:23.527Z,15.1
2023-03-06T01:42:25.375Z,25.7
2023-03-06T01:44:27.236Z,18.5
2023-03-06T01:46:32.307Z,8.4
2023-03-06T01:48:34.186Z,12.9
2023-03-06T01:50:36.058Z,9.7
2023-03-06T01:52:37.898Z,8.8
2023-03-06T01:54:39.777Z,9.4
2023-03-06T01:56:41.603Z,8.1
2023-03-06T01:58:43.597Z,9.7
2023-03-06T02:00:48.628Z,17.2
2023-03-06T02:02:50.395Z,16
2023-03-06T02:04:52.270Z,20.2
2023-03-06T02:06:54.084Z,13
2023-03-06T02:08:55.957Z,18.8
2023-03-06T02:10:57.852Z,8.9
2023-03-06T02:12:59.686Z,8.9
2023-03-06T02:15:04.769Z,14.9
2023-03-06T02:17:06.639Z,11.5
2023-03-06T02:19:08.638Z,12.6
2023-03-06T02:22:12.887Z,13.2
2023-03-06T02:24:14.730Z,11.8
2023-03-06T02:26:16.592Z,12.9
2023-03-06T02:28:21.676Z,17.8
2023-03-06T02:30:23.527Z,9.5
2023-03-06T02:32:25.446Z,10.9
2023-03-06T02:34:27.265Z,13.6
2023-03-06T02:36:29.081Z,19.5
2023-03-06T02:38:30.934Z,11.6
2023-03-06T02:44:39.731Z,12.4
2023-03-06T02:48:43.434Z,15.3
2023-03-06T02:52:47.131Z,12.9
2023-03-06T02:54:48.986Z,9.5
2023-03-06T02:56:54.041Z,13.4
2023-03-06T02:58:55.887Z,14.9
2023-03-06T03:00:57.763Z,13
2023-03-06T03:02:59.581Z,15.3
2023-03-06T03:05:01.468Z,11.2
2023-03-06T03:07:03.325Z,12.1
2023-03-06T03:09:05.170Z,14.1
2023-03-06T03:11:10.224Z,18.2
2023-03-06T03:13:12.087Z,14.9
2023-03-06T03:15:13.929Z,12.7
2023-03-06T03:20:20.181Z,16
2023-03-06T03:22:22.045Z,20.6
2023-03-06T03:24:27.179Z,16.5
2023-03-06T03:26:28.987Z,16.3
2023-03-06T03:28:30.873Z,12
2023-03-06T03:30:32.738Z,18.5
2023-03-06T03:32:34.661Z,14.5
2023-03-06T03:34:36.435Z,18.9
2023-03-06T03:36:38.265Z,21.9
2023-03-06T03:38:43.351Z,18.3
2023-03-06T03:40:45.217Z,28.9
2023-03-06T03:42:47.098Z,27.9
2023-03-06T03:44:48.961Z,14.9
2023-03-06T03:46:50.836Z,22.7
2023-03-06T03:48:52.667Z,27.7
2023-03-06T03:50:54.539Z,21.3
2023-03-06T03:52:59.626Z,24.4
2023-03-06T03:55:01.477Z,28.6
2023-03-06T03:57:03.374Z,22.6
2023-03-06T03:59:05.211Z,24
2023-03-06T04:01:07.074Z,27.6
2023-03-06T04:03:08.951Z,27.3
2023-03-06T04:07:15.939Z,28.5
2023-03-06T04:09:17.777Z,24.1
2023-03-06T04:11:19.661Z,25.4
2023-03-06T04:12:22.188Z,26.2
2023-03-06T04:14:24.047Z,25.1
2023-03-06T04:16:25.961Z,25.5
2023-03-06T04:18:27.791Z,26.9
2023-03-06T04:20:32.880Z,25.3
2023-03-06T04:22:34.741Z,24.2
2023-03-06T04:24:36.613Z,30.9
2023-03-06T04:26:38.505Z,25
2023-03-06T04:28:40.368Z,23.2
2023-03-06T04:30:42.233Z,24.4
2023-03-06T04:32:44.202Z,33.8
2023-03-06T04:34:49.192Z,29.3
2023-03-06T04:38:53.107Z,22.2
2023-03-06T04:42:56.677Z,28.7
2023-03-06T04:44:58.555Z,34.2
2023-03-06T04:47:00.407Z,26.2
2023-03-06T04:49:05.489Z,26.2
2023-03-06T04:51:07.366Z,25.5
2023-03-06T04:53:09.234Z,20
2023-03-06T04:55:11.083Z,24.5
2023-03-06T04:57:12.818Z,20.7
2023-03-06T05:05:23.552Z,24.5
2023-03-06T05:07:25.415Z,23.4
2023-03-06T05:09:54.313Z,27.2
2023-03-06T05:11:56.170Z,23.8
2023-03-06T05:13:58.054Z,24.5
2023-03-06T05:16:03.238Z,23.2
2023-03-06T05:18:04.996Z,23.6
2023-03-06T05:22:08.759Z,23.4
2023-03-06T05:24:10.618Z,24.9
2023-03-06T05:26:12.488Z,28.2
2023-03-06T05:28:14.353Z,28.2
2023-03-06T05:30:19.454Z,23.1
2023-03-06T05:32:21.343Z,21.9
2023-03-06T05:34:23.206Z,23.9
2023-03-06T05:36:25.060Z,25.4
2023-03-06T05:38:26.957Z,31
2023-03-06T05:40:28.813Z,36.2
2023-03-06T05:42:30.694Z,25.3
2023-03-06T05:44:35.798Z,26.5
2023-03-06T05:46:37.667Z,25.2
2023-03-06T05:48:39.567Z,32.2
2023-03-06T05:50:41.439Z,25
2023-03-06T05:52:43.315Z,26.5
2023-03-06T05:54:45.171Z,27.7
2023-03-06T05:56:47.037Z,30.7
2023-03-06T05:58:52.160Z,28.1
2023-03-06T06:00:54.029Z,25.5
2023-03-06T06:02:55.878Z,23
2023-03-06T06:03:58.426Z,29.3
2023-03-06T06:06:00.294Z,26.1
2023-03-06T06:08:02.160Z,29.2
2023-03-06T06:12:09.116Z,23.9
2023-03-06T06:14:11.000Z,23.8
2023-03-06T06:16:12.995Z,23.5
2023-03-06T06:24:20.384Z,21.9
2023-03-06T06:26:25.486Z,30.6
2023-03-06T06:28:27.349Z,28.9
2023-03-06T06:30:29.241Z,21.4
2023-03-06T06:32:32.717Z,22.5
2023-03-06T06:34:34.502Z,24.7
2023-03-06T06:36:36.396Z,16.7
2023-03-06T06:38:38.247Z,28.3
2023-03-06T06:40:43.373Z,23.9
2023-03-06T06:42:45.249Z,20.6
2023-03-06T06:44:47.160Z,22.9
2023-03-06T06:47:21.397Z,16.8
2023-03-06T06:48:50.892Z,26
2023-03-06T06:50:52.816Z,22.1
2023-03-06T06:54:59.790Z,18
2023-03-06T06:57:01.696Z,17.5
2023-03-06T06:59:15.723Z,19.2
2023-03-06T07:04:09.956Z,22
2023-03-06T07:10:20.064Z,13.8
2023-03-06T07:12:20.696Z,10.9
2023-03-06T07:14:22.589Z,12.8
2023-03-06T07:16:24.475Z,12.2
2023-03-06T07:22:41.559Z,12
2023-03-06T07:24:35.236Z,11.3
2023-03-06T07:26:37.389Z,8.2
2023-03-06T07:28:51.506Z,10.8
2023-03-06T07:30:40.926Z,10.7
2023-03-06T07:32:42.908Z,9.8
2023-03-06T07:34:44.712Z,10.8
2023-03-06T07:36:49.820Z,7.4
2023-03-06T07:38:51.703Z,7.9
2023-03-06T07:40:53.603Z,6.4
2023-03-06T07:42:57.722Z,8.2
2023-03-06T07:44:57.411Z,8.6
2023-03-06T07:46:59.355Z,5.6
2023-03-06T07:49:01.234Z,7.6
2023-03-06T07:55:10.202Z,11.3
2023-03-06T07:56:12.783Z,9.6
2023-03-06T07:58:14.706Z,7.5
2023-03-06T08:02:18.545Z,6.5
2023-03-06T08:08:27.478Z,4.2
2023-03-06T08:10:29.388Z,5.3
2023-03-06T08:12:31.299Z,5
2023-03-06T08:14:33.216Z,8.9
2023-03-06T08:16:35.203Z,4.4
2023-03-06T08:18:40.294Z,3.7
2023-03-06T08:20:42.220Z,3.8
2023-03-06T08:24:46.016Z,10.9
2023-03-06T08:26:47.936Z,3.8
2023-03-06T08:28:49.845Z,4.2
2023-03-06T08:30:51.806Z,16.7
2023-03-06T08:32:56.924Z,2.8
2023-03-06T08:34:58.878Z,2.6
2023-03-06T08:37:00.783Z,1.8
2023-03-06T08:39:02.729Z,2.4
2023-03-06T08:43:06.646Z,3.1
2023-03-06T08:47:13.754Z,2.3
2023-03-06T08:49:15.714Z,1.3
2023-03-06T08:51:17.639Z,2.7
2023-03-06T08:53:48.147Z,2.5
2023-03-06T08:55:48.476Z,2.4
2023-03-06T08:59:55.632Z,4.2
2023-03-06T09:01:57.671Z,8.1
2023-03-06T09:06:01.555Z,3.4
2023-03-06T09:08:03.534Z,0.6
2023-03-06T09:10:05.503Z,1.9
2023-03-06T09:12:07.475Z,2.9
2023-03-06T09:14:12.688Z,1.3
2023-03-06T09:16:14.694Z,9.5
2023-03-06T09:18:16.621Z,1.9
2023-03-06T09:20:18.601Z,5.3
2023-03-06T09:22:20.570Z,3.8
2023-03-06T09:24:22.557Z,1.6
2023-03-06T09:26:32.818Z,0.8
2023-03-06T09:34:35.708Z,1.2
2023-03-06T09:36:53.280Z,0.6
2023-03-06T09:38:39.611Z,1.5
2023-03-06T09:40:41.574Z,2.3
2023-03-06T09:42:46.762Z,1.4
2023-03-06T09:44:48.762Z,3.4
2023-03-06T09:46:50.690Z,1.4
2023-03-06T09:47:53.300Z,1.2
2023-03-06T09:49:55.282Z,0.7
2023-03-06T09:51:57.256Z,0.9
2023-03-06T09:53:59.275Z,1.9
2023-03-06T09:58:07.521Z,3.7
2023-03-06T10:00:08.418Z,1.6
2023-03-06T10:02:10.607Z,0.8
2023-03-06T10:04:12.404Z,3.5
2023-03-06T10:06:14.414Z,1.3
2023-03-06T10:08:16.371Z,1.2
2023-03-06T10:10:21.641Z,1.4
2023-03-06T10:16:27.499Z,0.5
2023-03-06T10:18:29.516Z,3.6
2023-03-06T10:20:31.473Z,1.4
2023-03-06T10:22:33.518Z,5.7
2023-03-06T10:24:38.669Z,1.6
2023-03-06T10:26:40.784Z,6.2
2023-03-06T10:28:42.662Z,2.2
2023-03-06T10:30:44.776Z,4
2023-03-06T10:32:49.192Z,1.9
2023-03-06T10:34:48.595Z,3.1
2023-03-06T10:36:50.546Z,0.9
2023-03-06T10:40:57.774Z,3.5
2023-03-06T10:43:11.217Z,4.3
2023-03-06T10:48:06.186Z,1.4
2023-03-06T10:50:08.496Z,0.8
2023-03-06T10:52:13.356Z,3.4
2023-03-06T10:56:17.314Z,2.1
2023-03-06T10:58:19.317Z,1.2
2023-03-06T11:00:21.293Z,4.5
2023-03-06T11:02:23.244Z,1.5
2023-03-06T11:04:25.257Z,1.9
2023-03-06T11:06:30.414Z,2.3
2023-03-06T11:08:32.402Z,1.4
2023-03-06T11:10:34.358Z,9.6
2023-03-06T11:12:36.326Z,1.5
2023-03-06T11:14:38.310Z,0.7
2023-03-06T11:16:40.252Z,2.5
2023-03-06T11:18:42.262Z,1.1
2023-03-06T11:20:52.043Z,1
2023-03-06T11:22:49.463Z,0.1
2023-03-06T11:24:51.437Z,0.3
2023-03-06T11:26:53.420Z,0.2
2023-03-06T11:30:57.357Z,1.4
2023-03-06T11:32:59.339Z,1.9
2023-03-06T11:37:06.500Z,2
2023-03-06T11:39:08.484Z,0.4
2023-03-06T11:40:11.120Z,1.1
2023-03-06T11:42:13.088Z,1.5
2023-03-06T11:44:14.970Z,6.3
2023-03-06T11:46:16.978Z,0.6
2023-03-06T11:48:22.217Z,1.9
2023-03-06T11:50:24.181Z,0.3
2023-03-06T11:52:26.164Z,2.2
2023-03-06T11:54:28.165Z,0.6
2023-03-06T11:56:31.700Z,0.3
2023-03-06T11:58:31.950Z,5.9
2023-03-06T12:00:33.987Z,0.6
2023-03-06T12:02:39.102Z,1.5
2023-03-06T12:04:41.119Z,0.2
2023-03-06T12:06:43.097Z,1.7
2023-03-06T12:08:45.013Z,1.6
2023-03-06T12:10:51.534Z,4
2023-03-06T12:12:48.904Z,3.5
2023-03-06T12:14:50.886Z,1.4
2023-03-06T12:16:55.957Z,3.5
2023-03-06T12:18:57.907Z,1.3
2023-03-06T12:20:59.915Z,2.1
2023-03-06T12:27:07.205Z,5
2023-03-06T12:29:09.089Z,3.5
2023-03-06T12:31:14.122Z,5.5
2023-03-06T12:33:15.995Z,4.9
2023-03-06T12:35:18.085Z,2.3
2023-03-06T12:37:46.821Z,1.5
2023-03-06T12:39:48.680Z,2.4
2023-03-06T12:41:50.575Z,0.2
2023-03-06T12:43:55.576Z,1.9
2023-03-06T12:45:57.499Z,1.4
2023-03-06T12:47:59.376Z,3.3
2023-03-06T12:50:01.257Z,2.3
2023-03-06T12:52:03.126Z,1.6
2023-03-06T12:56:06.894Z,0.3
2023-03-06T12:58:11.905Z,1.1
2023-03-06T13:00:13.838Z,7
2023-03-06T13:02:15.698Z,3.9
2023-03-06T13:04:17.610Z,2.3
2023-03-06T13:06:19.459Z,4.8
2023-03-06T13:08:21.378Z,3.6
2023-03-06T13:10:23.267Z,2.4
2023-03-06T13:12:28.298Z,1.5
2023-03-06T13:14:30.145Z,3
2023-03-06T13:16:32.103Z,0.8
2023-03-06T13:18:33.958Z,3.6
2023-03-06T13:22:37.728Z,1.6
2023-03-06T13:28:46.518Z,8.3
2023-03-06T13:30:48.432Z,2.3
2023-03-06T13:37:56.712Z,4.2
2023-03-06T13:40:01.732Z,4.6
2023-03-06T13:42:03.600Z,3
2023-03-06T13:44:05.515Z,12.7
2023-03-06T13:46:07.452Z,10.9
2023-03-06T13:48:33.815Z,3.9
2023-03-06T13:52:13.199Z,2.7
2023-03-06T13:54:18.468Z,2.3
2023-03-06T13:56:20.324Z,1.8
2023-03-06T13:58:22.293Z,3.4
2023-03-06T14:00:24.194Z,5
2023-03-06T14:02:26.139Z,3.5
2023-03-06T14:04:28.099Z,5.7
2023-03-06T14:08:35.192Z,3.1
2023-03-06T14:10:37.162Z,3.7
2023-03-06T14:12:39.191Z,2.8
2023-03-06T14:14:41.171Z,7.5
2023-03-06T14:16:50.020Z,7.8
2023-03-06T14:18:45.177Z,1.7
2023-03-06T14:20:47.145Z,6.7
2023-03-06T14:22:52.385Z,4.3
2023-03-06T14:24:54.371Z,5.8
2023-03-06T14:26:56.381Z,3.6
2023-03-06T14:28:05.836Z,4.9
2023-03-06T14:30:00.987Z,4.1
2023-03-06T14:32:03.012Z,2.9
2023-03-06T14:34:05.003Z,8.4
2023-03-06T14:42:16.202Z,6.1
2023-03-06T14:44:18.174Z,8.5
2023-03-06T14:50:27.278Z,7.9
2023-03-06T14:56:33.188Z,9.2
2023-03-06T14:58:35.186Z,9.2
2023-03-06T15:00:37.175Z,9.5
2023-03-06T15:02:39.195Z,7.7
2023-03-06T15:04:44.351Z,11.5
2023-03-06T15:06:46.394Z,6.2
2023-03-06T15:08:48.308Z,8.3
2023-03-06T15:10:50.299Z,8.7
2023-03-06T15:12:52.296Z,7.2
2023-03-06T15:14:54.294Z,5.5
2023-03-06T15:16:56.185Z,9.3
2023-03-06T15:19:01.383Z,9.3
2023-03-06T15:21:03.384Z,5.6
2023-03-06T15:23:05.376Z,8.2
2023-03-06T15:24:07.925Z,10
2023-03-06T15:26:09.928Z,7.5
2023-03-06T15:28:11.883Z,8.3
2023-03-06T15:32:19.062Z,26.5
2023-03-06T15:34:21.013Z,10.5
2023-03-06T15:36:22.961Z,14.1
2023-03-06T15:40:26.888Z,10.3
2023-03-06T15:42:28.868Z,19.4
2023-03-06T15:48:37.948Z,11.2
2023-03-06T15:54:43.790Z,14.5
2023-03-06T15:56:45.752Z,10.3
2023-03-06T15:58:47.736Z,14.1
2023-03-06T16:00:52.915Z,14.1
2023-03-06T16:02:54.810Z,11.3
2023-03-06T16:04:56.740Z,26.8
2023-03-06T16:06:58.698Z,25.5
2023-03-06T16:09:00.641Z,12.5
2023-03-06T16:10:56.705Z,13.6
2023-03-06T16:12:58.593Z,16.4
2023-03-06T16:15:03.748Z,20.6
2023-03-06T16:17:05.705Z,12.9
2023-03-06T16:19:11.474Z,11.8
2023-03-06T16:21:36.496Z,12.2
2023-03-06T16:23:38.415Z,12.5
2023-03-06T16:25:40.360Z,13.4
2023-03-06T16:29:47.421Z,12
2023-03-06T16:31:49.405Z,9.6
2023-03-06T16:33:51.337Z,9.6
2023-03-06T16:35:53.313Z,11.2
2023-03-06T16:39:57.144Z,12.5
2023-03-06T16:44:04.229Z,10.3
2023-03-06T16:46:06.199Z,12.2
2023-03-06T16:48:08.102Z,13.4
2023-03-06T16:50:10.649Z,10.3
2023-03-06T16:52:11.950Z,12.6
2023-03-06T16:54:13.918Z,13.1
2023-03-06T16:56:19.054Z,17.1
2023-03-06T16:58:21.590Z,12.1
2023-03-06T17:00:22.934Z,8.5
2023-03-06T17:02:24.890Z,17.4
2023-03-06T17:04:26.783Z,16.1
2023-03-06T17:06:28.725Z,14.6
2023-03-06T17:08:30.668Z,13.5
2023-03-06T17:10:35.876Z,19.9
2023-03-06T17:14:39.674Z,15.4
2023-03-06T17:15:42.301Z,24.1
2023-03-06T17:19:46.103Z,16.3
2023-03-06T17:21:48.107Z,17.6
2023-03-06T17:23:53.258Z,15.7
2023-03-06T17:25:55.135Z,23
2023-03-06T17:27:57.103Z,25.6
2023-03-06T17:29:58.981Z,25.9
2023-03-06T17:32:00.932Z,20.6
2023-03-06T17:34:02.840Z,24.2
2023-03-06T17:36:04.770Z,29.1
2023-03-06T17:38:09.900Z,25.3
2023-03-06T17:40:11.813Z,19
2023-03-06T17:42:13.783Z,21.2
2023-03-06T17:44:15.662Z,25.3
2023-03-06T17:46:17.621Z,24
2023-03-06T17:48:19.491Z,25.7
2023-03-06T17:50:21.432Z,28
2023-03-06T17:52:26.554Z,31.5
2023-03-06T17:54:28.472Z,26.1
2023-03-06T17:56:30.417Z,28
2023-03-06T17:58:32.335Z,27.1
2023-03-06T18:00:34.260Z,34.8
2023-03-06T18:02:36.165Z,29.5
2023-03-06T18:04:38.147Z,35.7
2023-03-06T18:06:43.231Z,30.5
2023-03-06T18:08:45.137Z,27.4
2023-03-06T18:10:47.093Z,30.8
2023-03-06T18:11:49.655Z,32.8
2023-03-06T18:13:51.568Z,34
2023-03-06T18:15:55.102Z,35.2
2023-03-06T18:17:56.958Z,40.2
2023-03-06T18:20:02.094Z,41.7
2023-03-06T18:24:05.894Z,40
2023-03-06T18:26:09.806Z,39.5
2023-03-06T18:28:09.733Z,41.2
2023-03-06T18:32:13.546Z,41
2023-03-06T18:34:18.688Z,41.5
2023-03-06T18:36:20.593Z,40.6
2023-03-06T18:38:22.514Z,43.9
2023-03-06T18:40:24.962Z,44.7
2023-03-06T18:42:26.362Z,35.8
2023-03-06T18:44:28.258Z,55.9
2023-03-06T18:46:30.185Z,43.6
2023-03-06T18:50:37.258Z,44.4
2023-03-06T18:54:41.092Z,55.6
2023-03-06T18:56:42.994Z,42.1
2023-03-06T18:58:44.993Z,48.9
2023-03-06T19:00:46.845Z,40.6
2023-03-06T19:02:51.935Z,37
2023-03-06T19:04:53.868Z,42.6
2023-03-06T19:07:58.342Z,47.5
2023-03-06T19:10:00.252Z,47.6
2023-03-06T19:12:01.912Z,45.6
2023-03-06T19:14:03.809Z,43.9
2023-03-06T19:16:08.988Z,46.2
2023-03-06T19:18:10.860Z,41.1
2023-03-06T19:24:16.600Z,47.7
2023-03-06T19:26:18.508Z,45.3
2023-03-06T19:28:20.435Z,51.1
2023-03-06T19:34:29.385Z,44.2
2023-03-06T19:36:33.743Z,42.5
2023-03-06T19:38:33.235Z,45.5
2023-03-06T19:42:37.066Z,44.2
2023-03-06T19:50:47.939Z,40.7
2023-03-06T19:52:49.851Z,39.4
2023-03-06T19:54:51.761Z,43.7
2023-03-06T19:56:53.661Z,41.8
2023-03-06T19:58:58.779Z,43.9
2023-03-06T20:01:00.733Z,48.3
2023-03-06T20:03:02.591Z,44
2023-03-06T20:05:31.442Z,49.4
2023-03-06T20:07:33.354Z,38.2
2023-03-06T20:09:35.241Z,45.2
2023-03-06T20:11:40.357Z,45.4
2023-03-06T20:13:47.216Z,38.6
2023-03-06T20:15:44.219Z,39.8
2023-03-06T20:17:46.035Z,48.5
2023-03-06T20:19:47.934Z,37.7
2023-03-06T20:21:49.865Z,45.3
2023-03-06T20:23:51.758Z,39.7
2023-03-06T20:25:56.885Z,38.2
2023-03-06T20:27:58.777Z,43.1
2023-03-06T20:30:00.709Z,58.9
2023-03-06T20:32:02.645Z,45.3
2023-03-06T20:34:04.524Z,49
2023-03-06T20:36:06.489Z,46
2023-03-06T20:38:08.331Z,46.5
2023-03-06T20:40:13.488Z,49.3
2023-03-06T20:42:15.391Z,35.1
2023-03-06T20:44:17.281Z,44.9
2023-03-06T20:46:19.274Z,50.8
2023-03-06T20:48:21.100Z,45.7
2023-03-06T20:50:23.079Z,43.5
2023-03-06T20:56:31.708Z,48.7
2023-03-06T20:58:33.631Z,46.4
2023-03-06T20:59:36.172Z,50.2
2023-03-06T21:01:38.144Z,48.7
2023-03-06T21:03:39.943Z,53
2023-03-06T21:05:41.874Z,45.3
2023-03-06T21:07:46.984Z,44
2023-03-06T21:09:48.866Z,56.8
2023-03-06T21:11:50.749Z,50.9
2023-03-06T21:13:52.651Z,51.6
2023-03-06T21:15:54.579Z,43.4
2023-03-06T21:17:56.443Z,49
2023-03-06T21:19:58.344Z,47.5
2023-03-06T21:22:03.522Z,42.1
2023-03-06T21:24:05.331Z,42.3
2023-03-06T21:26:07.224Z,47.4
2023-03-06T21:28:09.109Z,51.9
2023-03-06T21:30:11.231Z,50
2023-03-06T21:32:12.935Z,47.5
2023-03-06T21:34:14.770Z,62.1
2023-03-06T21:36:19.897Z,51.8
2023-03-06T21:38:21.803Z,48.5
2023-03-06T21:40:23.718Z,49.4
2023-03-06T21:44:27.524Z,55
2023-03-06T21:48:31.356Z,51.6
2023-03-06T21:50:36.495Z,51.3
2023-03-06T21:52:38.367Z,54.7
2023-03-06T21:54:40.278Z,55.8
2023-03-06T21:59:46.662Z,51.4
2023-03-06T22:03:53.775Z,48.2
2023-03-06T22:05:55.587Z,56.5
2023-03-06T22:07:57.496Z,60.6
2023-03-06T22:09:59.396Z,45.8
2023-03-06T22:12:01.290Z,45.9
2023-03-06T22:14:03.245Z,46
2023-03-06T22:16:05.314Z,44.8
2023-03-06T22:18:10.246Z,48.2
2023-03-06T22:20:12.155Z,46.1
2023-03-06T22:22:14.041Z,44.4
2023-03-06T22:24:15.958Z,43.3
2023-03-06T22:26:17.905Z,43.7
2023-03-06T22:28:19.786Z,38.4
2023-03-06T22:30:21.721Z,35.4
2023-03-06T22:32:26.887Z,40
2023-03-06T22:34:28.773Z,41.8
2023-03-06T22:36:30.681Z,38.8
2023-03-06T22:38:32.581Z,34.9
2023-03-06T22:42:36.455Z,32.4
2023-03-06T22:44:38.367Z,36.4
2023-03-06T22:50:47.394Z,31.7
2023-03-06T22:51:49.924Z,36.4
2023-03-06T23:00:00.901Z,29.5
2023-03-06T23:06:06.606Z,28.4
2023-03-06T23:08:08.521Z,30.9
2023-03-06T23:10:10.459Z,24.6
2023-03-06T23:12:12.370Z,31.6
2023-03-06T23:14:17.606Z,21.6
2023-03-06T23:16:19.454Z,23.9
2023-03-06T23:22:25.257Z,17.9
2023-03-06T23:24:27.170Z,25.4
2023-03-06T23:26:29.196Z,17.1
2023-03-06T23:28:34.273Z,20.1
2023-03-06T23:30:36.180Z,19.1
2023-03-06T23:32:38.149Z,23
2023-03-06T23:34:40.001Z,19.5
2023-03-06T23:36:41.940Z,20.3
2023-03-06T23:38:43.870Z,21.7
2023-03-06T23:40:45.780Z,17.4
2023-03-06T23:42:50.923Z,16.3
2023-03-06T23:44:52.888Z,15.8
2023-03-06T23:49:23.682Z,21.1
2023-03-06T23:51:25.589Z,16.6
2023-03-06T23:53:27.511Z,13.7
2023-03-06T23:57:34.608Z,12.6
2023-03-06T23:59:36.580Z,13.2
